Time;durP1;ratioP1;P1;durP2;ratioP2;P2;SDS_P1;SDS_P2;PMS_P1;PMS_P2;Temp;Humidity;BMP_temperature;BMP_pressure;BME280_temperature;BME280_humidity;BME280_pressure;Samples;Min_cycle;Max_cycle;Signal;HPM_P1;HPM_P2
2021/09/26 00:00:32;;;;;;;9.38;3.22;;;22.70;96.70;;;;;;5122058;27;20092;-78
2021/09/26 00:03:01;;;;;;;7.60;2.90;;;22.80;96.70;;;;;;5107008;27;20059;-78
2021/09/26 00:05:30;;;;;;;8.50;3.05;;;22.70;96.70;;;;;;5124558;27;20039;-78
2021/09/26 00:08:00;;;;;;;8.38;3.70;;;22.80;96.70;;;;;;5119821;27;20443;-78
2021/09/26 00:10:28;;;;;;;7.07;2.50;;;22.80;96.70;;;;;;5115918;27;20044;-77
2021/09/26 00:12:56;;;;;;;7.57;3.22;;;22.70;96.70;;;;;;5116160;27;20451;-78
2021/09/26 00:15:25;;;;;;;7.82;3.45;;;22.70;96.70;;;;;;5125181;27;20043;-78
2021/09/26 00:17:53;;;;;;;7.88;3.00;;;22.80;96.70;;;;;;5105759;27;20103;-77
2021/09/26 00:20:22;;;;;;;7.72;2.78;;;22.90;96.70;;;;;;5126894;27;20044;-78
2021/09/26 00:22:56;;;;;;;6.72;3.35;;;22.90;96.70;;;;;;5104226;27;20134;-78
2021/09/26 00:25:26;;;;;;;9.23;3.38;;;22.80;96.70;;;;;;5120278;27;20035;-78
2021/09/26 00:27:55;;;;;;;6.65;3.28;;;22.70;96.70;;;;;;5125327;27;20043;-82
2021/09/26 00:30:23;;;;;;;8.48;3.35;;;22.70;96.70;;;;;;5121994;27;20409;-82
2021/09/26 00:32:52;;;;;;;8.70;3.38;;;22.70;96.70;;;;;;5124708;27;20159;-81
2021/09/26 00:35:21;;;;;;;7.07;3.45;;;22.70;96.70;;;;;;5136256;27;20035;-81
2021/09/26 00:37:49;;;;;;;9.27;3.40;;;22.70;96.70;;;;;;5125889;27;20050;-81
2021/09/26 00:40:17;;;;;;;7.75;3.30;;;22.70;96.70;;;;;;5105347;27;20477;-82
2021/09/26 00:42:47;;;;;;;7.90;3.80;;;22.70;96.70;;;;;;5123534;27;20134;-81
2021/09/26 00:45:16;;;;;;;9.25;3.67;;;22.60;96.70;;;;;;5122308;27;20417;-81
2021/09/26 00:47:44;;;;;;;9.27;4.15;;;22.60;96.70;;;;;;5122867;27;20055;-81
2021/09/26 00:50:12;;;;;;;10.90;4.22;;;22.50;96.70;;;;;;5131729;27;20042;-82
2021/09/26 00:52:41;;;;;;;7.68;3.92;;;22.50;96.70;;;;;;5127262;27;20442;-81
2021/09/26 00:55:10;;;;;;;10.77;4.53;;;22.60;96.70;;;;;;5119923;27;20047;-82
2021/09/26 00:57:41;;;;;;;11.50;4.18;;;22.50;96.70;;;;;;5126726;27;20039;-83
2021/09/26 01:00:13;;;;;;;8.80;4.10;;;22.40;96.70;;;;;;5123766;27;20044;-83
2021/09/26 01:02:41;;;;;;;9.57;3.95;;;22.40;96.70;;;;;;5127292;27;20049;-83
2021/09/26 01:05:12;;;;;;;8.27;4.40;;;22.40;96.70;;;;;;5125138;27;20579;-83
2021/09/26 01:07:47;;;;;;;8.77;4.10;;;22.40;96.70;;;;;;5125709;27;20121;-83
2021/09/26 01:10:26;;;;;;;11.05;4.05;;;22.40;96.70;;;;;;5126748;27;20572;-84
2021/09/26 01:13:02;;;;;;;9.95;4.28;;;22.40;96.70;;;;;;5133465;27;20031;-83
2021/09/26 01:16:04;;;;;;;10.68;4.20;;;22.40;96.70;;;;;;5125566;27;20061;-85
2021/09/26 01:18:51;;;;;;;10.57;4.45;;;22.30;96.70;;;;;;5108801;27;20058;-85
2021/09/26 01:21:31;;;;;;;9.18;3.80;;;22.30;96.70;;;;;;5140175;27;20047;-84
2021/09/26 01:24:35;;;;;;;10.73;4.47;;;22.30;96.70;;;;;;5122558;27;20027;-85
2021/09/26 01:27:25;;;;;;;8.07;3.70;;;22.40;96.70;;;;;;5119495;27;20088;-83
2021/09/26 01:30:21;;;;;;;15.30;4.57;;;22.30;96.70;;;;;;5102894;27;20047;-84
2021/09/26 01:33:00;;;;;;;10.68;4.45;;;22.30;96.70;;;;;;5124431;27;20031;-85
2021/09/26 01:35:34;;;;;;;8.80;4.13;;;22.20;96.70;;;;;;5127335;27;20042;-85
2021/09/26 01:38:12;;;;;;;11.25;4.35;;;22.20;96.70;;;;;;5119701;27;20507;-86
2021/09/26 01:40:46;;;;;;;13.60;4.20;;;22.10;96.70;;;;;;5121435;27;20479;-85
2021/09/26 01:43:18;;;;;;;10.27;4.53;;;22.20;96.70;;;;;;5124923;27;20036;-85
2021/09/26 01:45:57;;;;;;;12.52;4.47;;;22.20;96.70;;;;;;5118793;27;20027;-85
2021/09/26 01:48:33;;;;;;;10.20;4.93;;;22.30;96.70;;;;;;5120709;27;20045;-85
2021/09/26 01:51:01;;;;;;;;;;;22.30;96.70;;;;;;5111912;27;20046;-85
2021/09/26 01:53:31;;;;;;;7.90;4.07;;;22.30;96.70;;;;;;5110863;27;19923;-86
2021/09/26 01:56:00;;;;;;;13.23;4.55;;;22.30;96.70;;;;;;5124838;27;20088;-84
2021/09/26 01:58:30;;;;;;;11.23;4.40;;;22.40;96.70;;;;;;5127166;27;20034;-86
2021/09/26 02:01:04;;;;;;;13.27;4.40;;;22.30;96.70;;;;;;5140086;27;20105;-86
2021/09/26 02:03:34;;;;;;;11.73;4.65;;;22.30;96.70;;;;;;5123059;27;20051;-86
2021/09/26 02:06:04;;;;;;;10.93;4.18;;;22.30;96.70;;;;;;5114615;27;20109;-86
2021/09/26 02:08:34;;;;;;;7.18;4.13;;;22.40;96.70;;;;;;5124246;27;20618;-86
2021/09/26 02:11:02;;;;;;;9.52;3.95;;;22.40;96.70;;;;;;5126004;27;20149;-83
2021/09/26 02:13:32;;;;;;;10.98;4.28;;;22.40;96.70;;;;;;5128378;27;20496;-84
2021/09/26 02:16:01;;;;;;;13.60;4.00;;;22.30;96.70;;;;;;5128724;27;20046;-84
2021/09/26 02:18:33;;;;;;;12.48;4.88;;;22.30;96.70;;;;;;5122201;27;20041;-84
2021/09/26 02:21:02;;;;;;;7.82;4.15;;;22.30;96.70;;;;;;5124248;27;20535;-84
2021/09/26 02:23:32;;;;;;;13.00;4.75;;;22.40;96.70;;;;;;5124230;27;20408;-83
2021/09/26 02:26:03;;;;;;;8.43;4.10;;;22.40;96.70;;;;;;5121807;27;20031;-83
2021/09/26 02:28:31;;;;;;;12.00;4.72;;;22.40;96.70;;;;;;5108528;27;20062;-84
2021/09/26 02:31:06;;;;;;;7.88;4.05;;;22.30;96.70;;;;;;5108911;27;20532;-84
2021/09/26 02:33:36;;;;;;;10.70;3.95;;;22.20;96.70;;;;;;5125105;27;20058;-85
2021/09/26 02:36:07;;;;;;;6.88;4.10;;;22.30;96.70;;;;;;5119965;27;20050;-85
2021/09/26 02:38:35;;;;;;;12.10;4.78;;;22.30;96.70;;;;;;5123160;27;20051;-82
2021/09/26 02:41:10;;;;;;;9.77;3.70;;;22.30;96.70;;;;;;5122627;27;20073;-82
2021/09/26 02:43:44;;;;;;;8.73;4.78;;;22.30;96.70;;;;;;5121925;27;20038;-82
2021/09/26 02:46:22;;;;;;;9.60;4.50;;;22.40;96.70;;;;;;5119662;27;20049;-82
2021/09/26 02:48:53;;;;;;;8.80;4.55;;;22.30;96.70;;;;;;5132530;27;20050;-81
2021/09/26 02:51:22;;;;;;;7.68;4.22;;;22.40;96.70;;;;;;5129171;27;20130;-82
2021/09/26 02:53:51;;;;;;;13.73;4.97;;;22.40;96.70;;;;;;5122992;27;20042;-82
2021/09/26 02:56:21;;;;;;;11.57;4.68;;;22.30;96.70;;;;;;5123343;27;20038;-82
2021/09/26 02:58:50;;;;;;;9.52;4.65;;;22.30;96.70;;;;;;5131488;27;20138;-82
2021/09/26 03:01:18;;;;;;;8.45;4.32;;;22.40;96.70;;;;;;5123099;27;20043;-83
2021/09/26 03:03:47;;;;;;;9.98;4.03;;;22.40;96.70;;;;;;5113351;27;20051;-82
2021/09/26 03:06:18;;;;;;;9.13;4.43;;;22.40;96.70;;;;;;5124056;27;20583;-82
2021/09/26 03:08:51;;;;;;;11.30;4.47;;;22.30;96.70;;;;;;5120688;27;20043;-81
2021/09/26 03:11:20;;;;;;;8.50;3.78;;;22.30;96.70;;;;;;5123809;27;20492;-81
2021/09/26 03:13:48;;;;;;;9.98;4.57;;;22.30;96.70;;;;;;5118199;27;20416;-82
2021/09/26 03:16:16;;;;;;;6.32;3.65;;;22.30;96.70;;;;;;5122157;27;20509;-82
2021/09/26 03:18:45;;;;;;;9.48;3.60;;;22.30;96.70;;;;;;5126789;27;20043;-82
2021/09/26 03:21:13;;;;;;;12.73;4.72;;;22.30;96.70;;;;;;5107872;27;20050;-82
2021/09/26 03:23:43;;;;;;;10.35;3.22;;;22.30;96.70;;;;;;5127565;27;20042;-82
2021/09/26 03:26:11;;;;;;;13.00;4.43;;;22.30;96.70;;;;;;5123006;27;20514;-82
2021/09/26 03:28:40;;;;;;;7.15;3.72;;;22.30;96.70;;;;;;5122388;27;20463;-82
2021/09/26 03:31:08;;;;;;;5.82;3.55;;;22.30;96.70;;;;;;5125497;27;20054;-82
2021/09/26 03:33:36;;;;;;;12.10;3.92;;;22.30;96.70;;;;;;5123342;27;20278;-82
2021/09/26 03:36:05;;;;;;;12.80;4.10;;;22.30;96.70;;;;;;5125614;27;20548;-82
2021/09/26 03:38:33;;;;;;;9.45;4.45;;;22.30;96.70;;;;;;5126763;27;20400;-82
2021/09/26 03:41:03;;;;;;;12.57;3.78;;;22.20;96.70;;;;;;5134033;27;20035;-82
2021/09/26 03:43:31;;;;;;;10.65;3.72;;;22.20;96.70;;;;;;5107642;27;20175;-82
2021/09/26 03:45:59;;;;;;;10.60;3.58;;;22.20;96.70;;;;;;5127418;27;20262;-82
2021/09/26 03:48:28;;;;;;;9.48;3.58;;;22.30;96.70;;;;;;5131997;27;20075;-83
2021/09/26 03:50:57;;;;;;;6.88;3.10;;;22.30;96.70;;;;;;5129736;27;20173;-81
2021/09/26 03:53:25;;;;;;;10.27;3.00;;;22.30;96.70;;;;;;5118831;27;20040;-82
2021/09/26 03:55:53;;;;;;;8.75;3.10;;;22.30;96.70;;;;;;5126735;27;20416;-82
2021/09/26 03:58:23;;;;;;;7.32;4.05;;;22.40;96.70;;;;;;5125662;27;20031;-82
2021/09/26 04:00:56;;;;;;;9.70;4.80;;;22.40;96.70;;;;;;5111445;27;20042;-82
2021/09/26 04:03:25;;;;;;;10.77;4.80;;;22.30;96.70;;;;;;5131901;27;20393;-81
2021/09/26 04:05:54;;;;;;;10.95;4.75;;;22.30;96.70;;;;;;5113214;27;20070;-82
2021/09/26 04:08:22;;;;;;;14.35;4.60;;;22.30;96.70;;;;;;5105563;27;20058;-82
2021/09/26 04:10:50;;;;;;;9.45;4.35;;;22.20;96.70;;;;;;5127808;27;20047;-82
2021/09/26 04:13:19;;;;;;;10.68;4.55;;;22.20;96.70;;;;;;5117582;27;20042;-82
2021/09/26 04:15:49;;;;;;;11.80;5.40;;;22.20;96.70;;;;;;5125565;27;20070;-81
2021/09/26 04:18:18;;;;;;;11.27;4.50;;;22.30;96.70;;;;;;5124647;27;20061;-82
2021/09/26 04:20:46;;;;;;;12.05;4.20;;;22.30;96.70;;;;;;5135751;27;20039;-82
2021/09/26 04:23:14;;;;;;;10.18;3.88;;;22.30;96.70;;;;;;5124832;27;20065;-82
2021/09/26 04:25:42;;;;;;;10.48;4.40;;;22.30;96.70;;;;;;5125214;27;20039;-82
2021/09/26 04:28:11;;;;;;;9.55;4.10;;;22.30;96.70;;;;;;5126269;27;20043;-82
2021/09/26 04:30:39;;;;;;;9.43;4.00;;;22.30;96.70;;;;;;5125268;27;20092;-82
2021/09/26 04:33:09;;;;;;;9.45;3.90;;;22.30;96.70;;;;;;5124801;27;20088;-82
2021/09/26 04:35:38;;;;;;;9.35;3.95;;;22.20;96.70;;;;;;5127465;27;20047;-81
2021/09/26 04:38:06;;;;;;;9.07;3.97;;;22.20;96.70;;;;;;5121949;27;20461;-82
2021/09/26 04:40:35;;;;;;;6.93;3.83;;;22.30;96.70;;;;;;5129908;27;20112;-82
2021/09/26 04:43:04;;;;;;;10.98;4.53;;;22.20;96.70;;;;;;5136261;27;20385;-81
2021/09/26 04:45:32;;;;;;;7.70;3.67;;;22.30;96.70;;;;;;5128655;27;20047;-82
2021/09/26 04:48:01;;;;;;;11.23;4.10;;;22.30;96.70;;;;;;5131018;27;20167;-83
2021/09/26 04:50:31;;;;;;;7.28;3.85;;;22.30;96.70;;;;;;5125117;27;20084;-81
2021/09/26 04:53:00;;;;;;;7.75;3.55;;;22.30;96.70;;;;;;5126253;27;20041;-81
2021/09/26 04:55:28;;;;;;;8.65;3.75;;;22.30;96.70;;;;;;5124984;27;20050;-82
2021/09/26 04:57:57;;;;;;;9.18;4.10;;;22.20;96.70;;;;;;5127026;27;20059;-81
2021/09/26 05:00:26;;;;;;;14.07;4.40;;;22.30;96.70;;;;;;5123248;27;20046;-82
2021/09/26 05:02:56;;;;;;;12.52;4.38;;;22.30;96.70;;;;;;5125004;27;20096;-82
2021/09/26 05:05:24;;;;;;;8.70;4.03;;;22.30;96.70;;;;;;5126711;27;20363;-82
2021/09/26 05:07:54;;;;;;;9.13;3.88;;;22.30;96.70;;;;;;5126162;27;20039;-82
2021/09/26 05:10:23;;;;;;;7.88;3.83;;;22.40;96.70;;;;;;5119217;27;20100;-82
2021/09/26 05:12:51;;;;;;;11.80;4.10;;;22.40;96.70;;;;;;5121618;27;20043;-82
2021/09/26 05:15:19;;;;;;;10.77;5.25;;;22.30;96.70;;;;;;5129864;27;20433;-82
2021/09/26 05:17:47;;;;;;;8.88;4.78;;;22.40;96.70;;;;;;5123913;27;20088;-80
2021/09/26 05:20:16;;;;;;;15.50;7.68;;;22.40;96.70;;;;;;5109567;27;20070;-82
2021/09/26 05:22:46;;;;;;;14.13;8.27;;;22.40;96.70;;;;;;5122361;27;20047;-82
2021/09/26 05:25:16;;;;;;;20.17;10.60;;;22.40;96.70;;;;;;5115004;27;20027;-81
2021/09/26 05:27:44;;;;;;;45.80;24.02;;;22.40;96.70;;;;;;5132450;27;20091;-82
2021/09/26 05:30:13;;;;;;;27.73;14.30;;;22.50;96.70;;;;;;5122543;27;20074;-82
2021/09/26 05:32:42;;;;;;;24.02;14.95;;;22.40;96.70;;;;;;5125826;27;20143;-83
2021/09/26 05:35:10;;;;;;;17.17;9.95;;;22.40;96.70;;;;;;5123468;27;20031;-83
2021/09/26 05:37:39;;;;;;;14.52;8.40;;;22.40;96.70;;;;;;5107663;27;20513;-83
2021/09/26 05:40:08;;;;;;;17.40;9.07;;;22.40;96.70;;;;;;5105096;27;20040;-82
2021/09/26 05:42:38;;;;;;;16.90;9.25;;;22.40;96.70;;;;;;5127201;27;20065;-81
2021/09/26 05:45:07;;;;;;;15.50;8.82;;;22.50;96.70;;;;;;5115838;27;20039;-83
2021/09/26 05:47:36;;;;;;;16.08;8.45;;;22.50;96.70;;;;;;5125862;27;20112;-82
2021/09/26 05:50:05;;;;;;;16.17;7.75;;;22.40;96.70;;;;;;5128493;27;20063;-82
2021/09/26 05:52:34;;;;;;;15.10;7.55;;;22.40;96.70;;;;;;5122793;27;20035;-82
2021/09/26 05:55:03;;;;;;;13.20;6.82;;;22.30;96.70;;;;;;5124974;27;20442;-82
2021/09/26 05:57:31;;;;;;;12.02;7.20;;;22.30;96.70;;;;;;5107754;27;20043;-81
2021/09/26 06:00:03;;;;;;;16.10;6.95;;;22.30;96.70;;;;;;5126511;27;20043;-84
2021/09/26 06:02:38;;;;;;;14.25;7.70;;;22.30;96.70;;;;;;5125428;27;20043;-83
2021/09/26 06:05:10;;;;;;;12.48;6.55;;;22.40;96.70;;;;;;5140338;27;20031;-83
2021/09/26 06:07:39;;;;;;;11.73;7.20;;;22.30;96.70;;;;;;5125029;27;20085;-83
2021/09/26 06:10:08;;;;;;;13.02;7.50;;;22.40;96.70;;;;;;5120882;27;20062;-82
2021/09/26 06:12:36;;;;;;;10.25;6.55;;;22.40;96.70;;;;;;5127980;27;20122;-82
2021/09/26 06:15:08;;;;;;;13.00;7.28;;;22.40;96.70;;;;;;5131834;27;20460;-83
2021/09/26 06:17:37;;;;;;;15.25;7.20;;;22.50;96.70;;;;;;5108347;27;20145;-83
2021/09/26 06:20:06;;;;;;;13.27;6.97;;;22.50;96.70;;;;;;5124952;27;20115;-83
2021/09/26 06:22:35;;;;;;;15.70;7.45;;;22.50;96.70;;;;;;5128473;27;20057;-84
2021/09/26 06:25:04;;;;;;;11.65;6.82;;;22.60;96.70;;;;;;5108379;27;20043;-85
2021/09/26 06:27:32;;;;;;;15.55;6.47;;;22.60;96.70;;;;;;5135700;27;20148;-84
2021/09/26 06:30:01;;;;;;;13.77;6.88;;;22.60;96.70;;;;;;5108639;27;20053;-84
2021/09/26 06:32:31;;;;;;;14.43;5.93;;;22.60;96.70;;;;;;5119782;27;20140;-84
2021/09/26 06:35:00;;;;;;;13.73;6.30;;;22.70;96.70;;;;;;5126281;27;20384;-84
2021/09/26 06:37:29;;;;;;;12.20;6.53;;;22.70;96.70;;;;;;5124526;27;20119;-84
2021/09/26 06:39:57;;;;;;;13.18;7.07;;;22.70;96.70;;;;;;5124125;27;20043;-84
2021/09/26 06:42:27;;;;;;;15.90;6.57;;;22.80;96.70;;;;;;5124384;27;20053;-83
2021/09/26 06:44:55;;;;;;;18.15;8.45;;;22.80;96.70;;;;;;5124930;27;20134;-84
2021/09/26 06:47:24;;;;;;;16.98;7.38;;;22.90;96.70;;;;;;5124875;27;20043;-84
2021/09/26 06:49:54;;;;;;;16.08;8.75;;;22.90;96.70;;;;;;5128423;27;20054;-83
2021/09/26 06:52:22;;;;;;;18.88;9.15;;;23.00;96.70;;;;;;5123147;27;20464;-84
2021/09/26 06:54:51;;;;;;;27.38;14.50;;;23.00;96.70;;;;;;5123664;27;20067;-82
2021/09/26 06:57:19;;;;;;;25.40;13.63;;;23.10;96.70;;;;;;5121830;27;20031;-83
2021/09/26 06:59:48;;;;;;;19.20;11.02;;;23.20;96.70;;;;;;5122878;27;20031;-83
2021/09/26 07:02:21;;;;;;;23.80;11.45;;;23.20;96.70;;;;;;5119489;27;20608;-84
2021/09/26 07:04:53;;;;;;;21.38;10.77;;;23.30;96.70;;;;;;5121340;27;20053;-84
2021/09/26 07:07:24;;;;;;;21.75;12.18;;;23.30;96.70;;;;;;5132409;27;20110;-84
2021/09/26 07:09:53;;;;;;;25.48;13.35;;;23.30;96.70;;;;;;5123908;27;20043;-84
2021/09/26 07:12:21;;;;;;;29.20;12.88;;;23.40;96.70;;;;;;5112109;27;20384;-82
2021/09/26 07:14:51;;;;;;;18.02;9.95;;;23.40;96.70;;;;;;5120490;27;20567;-81
2021/09/26 07:17:20;;;;;;;22.27;12.05;;;23.50;96.70;;;;;;5106875;27;20529;-82
2021/09/26 07:19:49;;;;;;;24.38;11.35;;;23.60;96.70;;;;;;5119559;27;20041;-82
2021/09/26 07:22:23;;;;;;;20.88;9.40;;;23.60;96.70;;;;;;5105673;27;20043;-81
2021/09/26 07:24:52;;;;;;;18.25;7.88;;;23.60;96.70;;;;;;5118099;27;20130;-81
2021/09/26 07:27:21;;;;;;;13.02;7.25;;;23.60;96.70;;;;;;5120724;27;20035;-82
2021/09/26 07:29:49;;;;;;;13.70;6.57;;;23.60;96.70;;;;;;5125789;27;20042;-82
2021/09/26 07:32:18;;;;;;;12.82;6.47;;;23.60;96.70;;;;;;5121602;27;20504;-81
2021/09/26 07:34:46;;;;;;;13.23;6.68;;;23.60;96.70;;;;;;5121148;27;20412;-81
2021/09/26 07:37:14;;;;;;;17.70;6.25;;;23.60;96.70;;;;;;5121844;27;20074;-81
2021/09/26 07:39:44;;;;;;;11.70;6.07;;;23.60;96.70;;;;;;5118220;27;20447;-82
2021/09/26 07:42:12;;;;;;;14.27;6.45;;;23.60;96.70;;;;;;5124113;27;20070;-83
2021/09/26 07:44:40;;;;;;;10.55;5.80;;;23.70;96.70;;;;;;5125465;27;20485;-83
2021/09/26 07:47:09;;;;;;;14.20;5.85;;;23.70;96.70;;;;;;5105190;27;20051;-84
2021/09/26 07:49:37;;;;;;;13.23;7.03;;;23.70;96.70;;;;;;5107523;27;20051;-83
2021/09/26 07:52:07;;;;;;;10.25;5.55;;;23.60;96.70;;;;;;5126767;27;20047;-83
2021/09/26 07:54:35;;;;;;;14.55;6.07;;;23.60;96.70;;;;;;5121445;27;20062;-83
2021/09/26 07:57:05;;;;;;;15.43;5.82;;;23.60;96.70;;;;;;5124333;27;20060;-83
2021/09/26 07:59:34;;;;;;;13.95;5.95;;;23.60;96.70;;;;;;5118222;28;20444;-83
2021/09/26 08:02:02;;;;;;;13.15;6.32;;;23.60;96.70;;;;;;5105994;27;20038;-83
2021/09/26 08:04:31;;;;;;;10.98;5.60;;;23.60;96.70;;;;;;5126984;27;20043;-82
2021/09/26 08:06:59;;;;;;;15.88;5.90;;;23.60;96.70;;;;;;5123526;27;20046;-83
2021/09/26 08:09:28;;;;;;;16.00;5.85;;;23.60;96.70;;;;;;5125084;27;20457;-84
2021/09/26 08:11:56;;;;;;;15.55;5.72;;;23.60;96.70;;;;;;5123041;27;20051;-82
2021/09/26 08:14:26;;;;;;;14.93;5.75;;;23.50;96.70;;;;;;5122786;27;20118;-82
2021/09/26 08:16:54;;;;;;;12.27;6.00;;;23.50;96.70;;;;;;5121412;27;20122;-83
2021/09/26 08:19:22;;;;;;;15.55;5.75;;;23.50;96.70;;;;;;5121458;27;20031;-83
2021/09/26 08:21:51;;;;;;;11.93;5.60;;;23.40;96.70;;;;;;5116779;27;20069;-82
2021/09/26 08:24:20;;;;;;;12.90;6.20;;;23.50;96.70;;;;;;5123280;27;20062;-83
2021/09/26 08:26:48;;;;;;;10.55;5.97;;;23.50;96.70;;;;;;5124770;27;20043;-85
2021/09/26 08:29:17;;;;;;;15.20;5.75;;;23.50;96.70;;;;;;5135785;27;20101;-85
2021/09/26 08:31:47;;;;;;;12.13;5.88;;;23.50;96.70;;;;;;5126942;27;20107;-85
2021/09/26 08:34:16;;;;;;;10.57;6.07;;;23.60;96.70;;;;;;5126039;27;20035;-85
2021/09/26 08:36:44;;;;;;;14.98;5.45;;;23.60;96.70;;;;;;5114404;27;20096;-81
2021/09/26 08:39:12;;;;;;;13.13;5.90;;;23.70;96.70;;;;;;5123989;27;20474;-81
2021/09/26 08:41:41;;;;;;;18.55;7.68;;;23.70;96.70;;;;;;5129410;27;20047;-81
2021/09/26 08:44:10;;;;;;;15.18;7.38;;;23.80;96.70;;;;;;5121881;27;20053;-81
2021/09/26 08:46:40;;;;;;;12.43;6.82;;;23.90;96.70;;;;;;5122340;27;20116;-82
2021/09/26 08:49:10;;;;;;;13.55;6.05;;;24.00;96.70;;;;;;5127508;27;20046;-83
2021/09/26 08:51:38;;;;;;;14.90;6.68;;;24.10;96.70;;;;;;5124385;27;20352;-80
2021/09/26 08:54:07;;;;;;;12.07;5.80;;;24.30;96.70;;;;;;5124753;27;20126;-79
2021/09/26 08:56:36;;;;;;;15.27;5.68;;;24.40;96.70;;;;;;5125816;27;20103;-80
2021/09/26 08:59:04;;;;;;;12.30;5.57;;;24.60;96.70;;;;;;5123512;27;20040;-80
2021/09/26 09:01:33;;;;;;;13.32;5.65;;;24.70;96.70;;;;;;5122099;27;20531;-80
2021/09/26 09:04:01;;;;;;;9.40;4.95;;;25.00;96.70;;;;;;5120031;27;20055;-76
2021/09/26 09:06:42;;;;;;;12.45;4.88;;;25.20;96.70;;;;;;5125739;27;20026;-79
2021/09/26 09:09:15;;;;;;;15.55;5.13;;;25.20;96.70;;;;;;5123298;27;20047;-79
2021/09/26 09:11:45;;;;;;;15.25;5.18;;;25.30;96.70;;;;;;5123441;27;20039;-79
2021/09/26 09:14:13;;;;;;;14.23;4.47;;;25.40;96.70;;;;;;5129720;27;20039;-79
2021/09/26 09:16:42;;;;;;;11.88;5.47;;;25.50;96.70;;;;;;5120567;27;20523;-78
2021/09/26 09:19:21;;;;;;;10.05;4.40;;;25.60;96.70;;;;;;5122357;27;20272;-79
2021/09/26 09:22:05;;;;;;;13.23;4.95;;;25.60;96.70;;;;;;5121000;27;20051;-79
2021/09/26 09:24:39;;;;;;;10.18;5.30;;;25.60;96.70;;;;;;5112332;27;20047;-79
2021/09/26 09:27:07;;;;;;;10.00;4.97;;;25.70;96.70;;;;;;5124594;27;20104;-79
2021/09/26 09:29:38;;;;;;;15.38;5.00;;;25.90;96.70;;;;;;5120174;27;20420;-79
2021/09/26 09:32:17;;;;;;;12.20;4.95;;;25.90;96.70;;;;;;5121879;27;20057;-79
2021/09/26 09:34:46;;;;;;;12.40;5.85;;;25.90;96.70;;;;;;5120745;27;20043;-78
2021/09/26 09:37:18;;;;;;;13.98;5.18;;;25.90;96.70;;;;;;5120813;27;20031;-79
2021/09/26 09:40:06;;;;;;;12.07;5.13;;;26.00;96.70;;;;;;5121321;27;20047;-82
2021/09/26 09:42:39;;;;;;;10.25;4.70;;;26.00;96.70;;;;;;5123440;27;20043;-80
2021/09/26 09:45:16;;;;;;;11.05;4.88;;;25.90;96.70;;;;;;5121296;27;20488;-80
2021/09/26 09:48:16;;;;;;;11.45;5.63;;;25.80;96.70;;;;;;5101144;27;20042;-81
2021/09/26 09:50:48;;;;;;;14.20;5.13;;;25.80;96.70;;;;;;5122231;27;20054;-80
2021/09/26 09:53:33;;;;;;;12.15;5.22;;;25.80;96.70;;;;;;5123128;27;20035;-81
2021/09/26 09:56:15;;;;;;;12.63;5.67;;;25.90;96.70;;;;;;5110613;27;20511;-80
2021/09/26 09:58:45;;;;;;;14.52;5.53;;;25.90;96.70;;;;;;5121587;27;20035;-80
2021/09/26 10:01:16;;;;;;;12.88;5.20;;;26.10;96.70;;;;;;5121974;27;20099;-80
2021/09/26 10:03:50;;;;;;;13.82;5.55;;;26.30;96.70;;;;;;5101784;27;20035;-80
2021/09/26 10:06:40;;;;;;;13.45;5.75;;;26.50;96.70;;;;;;5121712;27;20110;-81
2021/09/26 10:09:22;;;;;;;13.18;5.53;;;26.50;96.70;;;;;;5112869;27;20112;-79
2021/09/26 10:11:54;;;;;;;11.13;5.60;;;26.70;96.70;;;;;;5119072;27;20078;-82
2021/09/26 10:14:24;;;;;;;10.88;5.60;;;26.90;96.70;;;;;;5122297;27;20039;-80
2021/09/26 10:16:54;;;;;;;14.77;6.15;;;27.10;96.70;;;;;;5118590;27;20608;-81
2021/09/26 10:19:24;;;;;;;16.65;5.97;;;27.20;96.70;;;;;;5115995;27;20036;-80
2021/09/26 10:21:54;;;;;;;17.67;6.18;;;27.20;96.70;;;;;;5120797;27;20804;-80
2021/09/26 10:24:30;;;;;;;14.00;5.47;;;27.00;96.70;;;;;;5125664;27;21192;-80
2021/09/26 10:27:01;;;;;;;13.93;5.63;;;27.00;96.70;;;;;;5119603;27;20051;-80
2021/09/26 10:29:33;;;;;;;16.70;5.97;;;27.10;96.70;;;;;;5101046;27;20051;-79
2021/09/26 10:32:04;;;;;;;12.48;5.53;;;27.10;96.70;;;;;;5126381;27;20047;-82
2021/09/26 10:34:33;;;;;;;15.00;6.43;;;27.00;96.70;;;;;;5132360;27;20071;-80
2021/09/26 10:37:05;;;;;;;13.77;5.63;;;26.90;96.70;;;;;;5126994;27;20477;-80
2021/09/26 10:39:37;;;;;;;16.75;6.25;;;26.80;96.70;;;;;;5117863;27;20134;-80
2021/09/26 10:42:08;;;;;;;10.95;6.30;;;26.60;96.70;;;;;;5138530;27;20043;-80
2021/09/26 10:44:42;;;;;;;10.07;5.18;;;26.50;96.70;;;;;;5124340;27;20050;-81
2021/09/26 10:47:16;;;;;;;11.70;6.28;;;26.40;96.70;;;;;;5120947;27;20070;-80
2021/09/26 10:49:47;;;;;;;13.63;6.25;;;26.50;96.70;;;;;;5116693;27;20050;-82
2021/09/26 10:52:32;;;;;;;9.88;5.10;;;26.50;96.70;;;;;;5117479;27;20063;-80
2021/09/26 10:55:29;;;;;;;17.33;6.10;;;26.60;96.70;;;;;;5122003;27;20497;-80
2021/09/26 10:58:18;;;;;;;13.40;6.22;;;26.60;96.70;;;;;;5121787;27;20541;-81
2021/09/26 11:01:02;;;;;;;18.38;6.47;;;26.50;96.70;;;;;;5112580;27;20508;-80
2021/09/26 11:03:40;;;;;;;17.42;6.25;;;26.40;96.70;;;;;;5102387;27;20400;-79
2021/09/26 11:06:27;;;;;;;14.38;6.38;;;26.40;96.70;;;;;;5122511;27;20485;-80
2021/09/26 11:08:57;;;;;;;11.63;5.45;;;26.50;96.70;;;;;;5124662;27;20042;-79
2021/09/26 11:11:38;;;;;;;12.52;6.15;;;26.60;96.70;;;;;;5123664;27;20130;-80
2021/09/26 11:14:08;;;;;;;11.95;5.68;;;26.80;96.70;;;;;;5126755;27;20377;-80
2021/09/26 11:16:54;;;;;;;10.60;5.43;;;26.80;96.70;;;;;;5119507;27;20074;-82
2021/09/26 11:19:23;;;;;;;9.33;5.13;;;26.90;96.70;;;;;;5118192;27;20039;-81
2021/09/26 11:21:59;;;;;;;12.07;5.75;;;27.20;96.70;;;;;;5125384;27;20039;-81
2021/09/26 11:24:59;;;;;;;17.05;5.03;;;27.40;96.70;;;;;;5123167;27;20043;-80
2021/09/26 11:27:39;;;;;;;13.65;5.45;;;27.50;96.70;;;;;;5092235;27;20046;-80
2021/09/26 11:30:36;;;;;;;13.93;6.07;;;27.60;96.70;;;;;;5123236;27;20062;-81
2021/09/26 11:33:07;;;;;;;14.18;5.32;;;27.70;96.70;;;;;;5121777;28;20039;-80
2021/09/26 11:35:37;;;;;;;11.77;4.05;;;28.00;96.70;;;;;;5119251;27;20077;-81
2021/09/26 11:38:11;;;;;;;9.95;4.93;;;28.20;96.70;;;;;;5120878;27;20046;-80
2021/09/26 11:41:07;;;;;;;13.32;4.80;;;28.30;96.70;;;;;;5120598;27;20043;-80
2021/09/26 11:43:40;;;;;;;13.48;4.85;;;28.50;96.70;;;;;;5116391;27;20079;-81
2021/09/26 11:46:23;;;;;;;17.63;6.47;;;28.50;96.70;;;;;;5122924;27;20134;-80
2021/09/26 11:48:56;;;;;;;10.40;4.28;;;28.90;96.70;;;;;;5124123;27;20377;-80
2021/09/26 11:51:25;;;;;;;14.27;5.18;;;28.90;96.70;;;;;;5119012;27;20074;-80
2021/09/26 11:53:53;;;;;;;10.98;5.03;;;29.10;96.70;;;;;;5106415;27;20058;-81
2021/09/26 11:56:24;;;;;;;11.32;4.60;;;29.20;96.70;;;;;;5123062;27;20040;-80
2021/09/26 11:58:57;;;;;;;13.85;4.40;;;29.40;96.70;;;;;;5108954;27;20060;-81
2021/09/26 12:01:31;;;;;;;9.98;4.47;;;29.50;96.70;;;;;;5128048;27;20135;-80
2021/09/26 12:04:07;;;;;;;11.95;5.03;;;29.70;96.70;;;;;;5123304;27;20486;-80
2021/09/26 12:06:35;;;;;;;9.95;4.30;;;29.80;96.70;;;;;;5124735;27;20161;-81
2021/09/26 12:09:04;;;;;;;8.73;4.00;;;29.90;96.70;;;;;;5122294;27;20740;-81
2021/09/26 12:11:45;;;;;;;10.23;4.20;;;29.80;96.70;;;;;;5135682;27;20043;-81
2021/09/26 12:14:22;;;;;;;12.93;4.55;;;29.80;96.70;;;;;;5126657;27;20378;-82
2021/09/26 12:16:50;;;;;;;10.88;4.32;;;29.70;96.70;;;;;;5121204;27;20043;-81
2021/09/26 12:19:18;;;;;;;17.85;5.38;;;29.90;96.70;;;;;;5126352;27;20041;-80
2021/09/26 12:21:47;;;;;;;16.17;4.70;;;30.20;96.70;;;;;;5125627;27;20559;-80
2021/09/26 12:24:17;;;;;;;12.55;4.05;;;30.40;96.70;;;;;;5123586;27;20039;-80
2021/09/26 12:26:47;;;;;;;10.07;3.92;;;30.60;96.70;;;;;;5119039;27;20436;-80
2021/09/26 12:29:21;;;;;;;10.90;4.20;;;30.80;96.70;;;;;;5125341;27;20051;-77
2021/09/26 12:31:54;;;;;;;16.60;4.57;;;30.70;96.70;;;;;;5124986;27;20039;-77
2021/09/26 12:34:26;;;;;;;14.18;3.95;;;30.60;96.70;;;;;;5123875;27;20119;-77
2021/09/26 12:36:54;;;;;;;9.20;3.67;;;30.40;96.70;;;;;;5120546;27;20047;-77
2021/09/26 12:39:26;;;;;;;13.73;4.13;;;30.60;96.70;;;;;;5107395;27;20043;-77
2021/09/26 12:41:57;;;;;;;15.65;4.50;;;30.50;96.70;;;;;;5130566;27;20088;-77
2021/09/26 12:44:29;;;;;;;11.30;4.57;;;30.60;96.70;;;;;;5122358;27;20451;-78
2021/09/26 12:47:04;;;;;;;12.73;4.20;;;30.90;96.70;;;;;;5127870;27;20047;-79
2021/09/26 12:49:34;;;;;;;13.77;4.25;;;30.80;96.70;;;;;;5124056;27;20099;-78
2021/09/26 12:52:06;;;;;;;14.63;4.32;;;30.50;96.70;;;;;;5107645;27;20401;-79
2021/09/26 12:54:41;;;;;;;9.32;4.07;;;30.30;96.70;;;;;;5134328;27;20135;-79
2021/09/26 12:57:12;;;;;;;9.15;3.88;;;30.10;96.70;;;;;;5122056;27;20047;-79
2021/09/26 12:59:43;;;;;;;16.23;4.53;;;29.70;96.70;;;;;;5129939;27;20100;-80